sensor_id;sensor_type;location;lat;lon;timestamp;P1;durP1;ratioP1;P2;durP2;ratioP2
16784;SDS011;8509;52.178;5.404;2023-08-06T00:01:31;6.20;;;3.50;;
16784;SDS011;8509;52.178;5.404;2023-08-06T00:03:56;5.38;;;3.60;;
16784;SDS011;8509;52.178;5.404;2023-08-06T00:06:22;6.57;;;3.10;;
16784;SDS011;8509;52.178;5.404;2023-08-06T00:08:48;5.47;;;3.75;;
16784;SDS011;8509;52.178;5.404;2023-08-06T00:11:14;5.25;;;3.35;;
16784;SDS011;8509;52.178;5.404;2023-08-06T00:13:39;6.28;;;3.55;;
16784;SDS011;8509;52.178;5.404;2023-08-06T00:16:09;6.85;;;3.45;;
16784;SDS011;8509;52.178;5.404;2023-08-06T00:18:37;8.18;;;4.80;;
16784;SDS011;8509;52.178;5.404;2023-08-06T00:21:04;6.38;;;3.92;;
16784;SDS011;8509;52.178;5.404;2023-08-06T00:23:29;5.25;;;2.95;;
16784;SDS011;8509;52.178;5.404;2023-08-06T00:25:55;6.35;;;4.22;;
16784;SDS011;8509;52.178;5.404;2023-08-06T00:28:21;6.85;;;3.75;;
16784;SDS011;8509;52.178;5.404;2023-08-06T00:30:52;4.95;;;2.95;;
16784;SDS011;8509;52.178;5.404;2023-08-06T00:33:18;6.43;;;4.13;;
16784;SDS011;8509;52.178;5.404;2023-08-06T00:35:44;7.68;;;3.80;;
16784;SDS011;8509;52.178;5.404;2023-08-06T00:38:10;5.57;;;3.13;;
16784;SDS011;8509;52.178;5.404;2023-08-06T00:40:35;7.63;;;3.22;;
16784;SDS011;8509;52.178;5.404;2023-08-06T00:43:01;3.45;;;2.90;;
16784;SDS011;8509;52.178;5.404;2023-08-06T00:45:27;4.60;;;2.92;;
16784;SDS011;8509;52.178;5.404;2023-08-06T00:47:54;5.10;;;3.03;;
16784;SDS011;8509;52.178;5.404;2023-08-06T00:50:21;4.38;;;3.03;;
16784;SDS011;8509;52.178;5.404;2023-08-06T00:52:48;7.03;;;3.08;;
16784;SDS011;8509;52.178;5.404;2023-08-06T00:55:14;4.30;;;3.17;;
16784;SDS011;8509;52.178;5.404;2023-08-06T00:57:40;4.82;;;3.20;;
16784;SDS011;8509;52.178;5.404;2023-08-06T01:00:06;4.93;;;3.08;;
16784;SDS011;8509;52.178;5.404;2023-08-06T01:02:32;6.78;;;3.97;;
16784;SDS011;8509;52.178;5.404;2023-08-06T01:04:58;9.15;;;3.90;;
16784;SDS011;8509;52.178;5.404;2023-08-06T01:13:02;5.80;;;4.07;;
16784;SDS011;8509;52.178;5.404;2023-08-06T01:15:51;6.43;;;3.13;;
16784;SDS011;8509;52.178;5.404;2023-08-06T01:18:22;6.10;;;3.90;;
16784;SDS011;8509;52.178;5.404;2023-08-06T01:20:48;4.70;;;3.05;;
16784;SDS011;8509;52.178;5.404;2023-08-06T01:23:14;6.80;;;3.80;;
16784;SDS011;8509;52.178;5.404;2023-08-06T01:25:46;6.95;;;3.40;;
16784;SDS011;8509;52.178;5.404;2023-08-06T01:28:25;5.90;;;3.28;;
16784;SDS011;8509;52.178;5.404;2023-08-06T01:30:59;6.25;;;3.65;;
16784;SDS011;8509;52.178;5.404;2023-08-06T01:33:30;6.25;;;3.08;;
16784;SDS011;8509;52.178;5.404;2023-08-06T01:35:59;5.13;;;3.03;;
16784;SDS011;8509;52.178;5.404;2023-08-06T01:38:26;5.05;;;3.47;;
16784;SDS011;8509;52.178;5.404;2023-08-06T01:40:53;6.03;;;4.05;;
16784;SDS011;8509;52.178;5.404;2023-08-06T01:43:19;8.15;;;4.10;;
16784;SDS011;8509;52.178;5.404;2023-08-06T01:45:44;9.05;;;4.70;;
16784;SDS011;8509;52.178;5.404;2023-08-06T01:48:10;7.28;;;3.83;;
16784;SDS011;8509;52.178;5.404;2023-08-06T01:50:35;8.13;;;4.20;;
16784;SDS011;8509;52.178;5.404;2023-08-06T01:53:01;6.50;;;4.18;;
16784;SDS011;8509;52.178;5.404;2023-08-06T01:55:27;6.95;;;4.03;;
16784;SDS011;8509;52.178;5.404;2023-08-06T01:57:54;7.80;;;4.65;;
16784;SDS011;8509;52.178;5.404;2023-08-06T02:00:20;7.15;;;4.13;;
16784;SDS011;8509;52.178;5.404;2023-08-06T02:02:45;6.93;;;4.38;;
16784;SDS011;8509;52.178;5.404;2023-08-06T02:05:11;7.43;;;4.75;;
16784;SDS011;8509;52.178;5.404;2023-08-06T02:07:37;8.02;;;4.07;;
16784;SDS011;8509;52.178;5.404;2023-08-06T02:10:02;12.38;;;5.05;;
16784;SDS011;8509;52.178;5.404;2023-08-06T02:12:28;9.93;;;5.05;;
16784;SDS011;8509;52.178;5.404;2023-08-06T02:14:54;8.68;;;5.35;;
16784;SDS011;8509;52.178;5.404;2023-08-06T02:17:19;8.60;;;5.15;;
16784;SDS011;8509;52.178;5.404;2023-08-06T02:19:45;6.53;;;4.07;;
16784;SDS011;8509;52.178;5.404;2023-08-06T02:22:11;7.40;;;4.75;;
16784;SDS011;8509;52.178;5.404;2023-08-06T02:24:36;16.00;;;4.97;;
16784;SDS011;8509;52.178;5.404;2023-08-06T02:27:02;9.00;;;5.07;;
16784;SDS011;8509;52.178;5.404;2023-08-06T02:29:27;7.20;;;4.68;;
16784;SDS011;8509;52.178;5.404;2023-08-06T02:31:53;6.97;;;4.13;;
16784;SDS011;8509;52.178;5.404;2023-08-06T02:34:19;5.60;;;3.85;;
16784;SDS011;8509;52.178;5.404;2023-08-06T02:36:44;8.02;;;4.38;;
16784;SDS011;8509;52.178;5.404;2023-08-06T02:39:10;6.95;;;4.38;;
16784;SDS011;8509;52.178;5.404;2023-08-06T02:41:36;7.18;;;4.22;;
16784;SDS011;8509;52.178;5.404;2023-08-06T02:44:01;10.90;;;6.00;;
16784;SDS011;8509;52.178;5.404;2023-08-06T02:46:27;9.82;;;6.40;;
16784;SDS011;8509;52.178;5.404;2023-08-06T02:48:53;7.90;;;5.20;;
16784;SDS011;8509;52.178;5.404;2023-08-06T02:51:19;6.63;;;4.43;;
16784;SDS011;8509;52.178;5.404;2023-08-06T02:53:44;7.68;;;4.30;;
16784;SDS011;8509;52.178;5.404;2023-08-06T02:56:10;9.45;;;5.45;;
16784;SDS011;8509;52.178;5.404;2023-08-06T02:58:36;7.63;;;4.65;;
16784;SDS011;8509;52.178;5.404;2023-08-06T03:01:02;5.03;;;3.38;;
16784;SDS011;8509;52.178;5.404;2023-08-06T03:03:30;6.38;;;3.67;;
16784;SDS011;8509;52.178;5.404;2023-08-06T03:05:56;5.97;;;4.22;;
16784;SDS011;8509;52.178;5.404;2023-08-06T03:08:22;6.97;;;4.15;;
16784;SDS011;8509;52.178;5.404;2023-08-06T03:10:48;4.72;;;3.22;;
16784;SDS011;8509;52.178;5.404;2023-08-06T03:13:15;5.68;;;4.05;;
16784;SDS011;8509;52.178;5.404;2023-08-06T03:15:51;5.03;;;3.05;;
16784;SDS011;8509;52.178;5.404;2023-08-06T03:18:20;5.13;;;3.63;;
16784;SDS011;8509;52.178;5.404;2023-08-06T03:20:46;4.35;;;2.58;;
16784;SDS011;8509;52.178;5.404;2023-08-06T03:23:12;3.67;;;2.35;;
16784;SDS011;8509;52.178;5.404;2023-08-06T03:25:38;3.95;;;3.10;;
16784;SDS011;8509;52.178;5.404;2023-08-06T03:28:04;3.30;;;2.10;;
16784;SDS011;8509;52.178;5.404;2023-08-06T03:30:29;1.85;;;1.30;;
16784;SDS011;8509;52.178;5.404;2023-08-06T03:32:55;2.10;;;1.58;;
16784;SDS011;8509;52.178;5.404;2023-08-06T03:35:20;3.03;;;1.70;;
16784;SDS011;8509;52.178;5.404;2023-08-06T03:37:46;2.30;;;1.80;;
16784;SDS011;8509;52.178;5.404;2023-08-06T03:40:12;1.85;;;1.45;;
16784;SDS011;8509;52.178;5.404;2023-08-06T03:42:37;2.17;;;1.77;;
16784;SDS011;8509;52.178;5.404;2023-08-06T03:45:03;5.07;;;2.42;;
16784;SDS011;8509;52.178;5.404;2023-08-06T03:47:29;1.08;;;1.05;;
16784;SDS011;8509;52.178;5.404;2023-08-06T03:49:55;2.90;;;2.00;;
16784;SDS011;8509;52.178;5.404;2023-08-06T03:52:20;2.60;;;1.85;;
16784;SDS011;8509;52.178;5.404;2023-08-06T03:54:46;3.78;;;2.42;;
16784;SDS011;8509;52.178;5.404;2023-08-06T03:57:12;3.67;;;2.35;;
16784;SDS011;8509;52.178;5.404;2023-08-06T03:59:37;3.97;;;2.78;;
16784;SDS011;8509;52.178;5.404;2023-08-06T04:02:03;7.00;;;3.90;;
16784;SDS011;8509;52.178;5.404;2023-08-06T04:04:28;6.28;;;3.15;;
16784;SDS011;8509;52.178;5.404;2023-08-06T04:06:54;8.05;;;4.60;;
16784;SDS011;8509;52.178;5.404;2023-08-06T04:09:20;8.85;;;5.38;;
16784;SDS011;8509;52.178;5.404;2023-08-06T04:11:45;9.75;;;5.05;;
16784;SDS011;8509;52.178;5.404;2023-08-06T04:14:11;11.20;;;6.47;;
16784;SDS011;8509;52.178;5.404;2023-08-06T04:16:37;9.15;;;4.80;;
16784;SDS011;8509;52.178;5.404;2023-08-06T04:19:02;11.57;;;5.75;;
16784;SDS011;8509;52.178;5.404;2023-08-06T04:21:28;9.55;;;5.63;;
16784;SDS011;8509;52.178;5.404;2023-08-06T04:23:54;7.80;;;4.53;;
16784;SDS011;8509;52.178;5.404;2023-08-06T04:26:19;7.57;;;5.18;;
16784;SDS011;8509;52.178;5.404;2023-08-06T04:28:45;9.43;;;5.00;;
16784;SDS011;8509;52.178;5.404;2023-08-06T04:31:10;9.10;;;5.45;;
16784;SDS011;8509;52.178;5.404;2023-08-06T04:33:36;9.73;;;5.47;;
16784;SDS011;8509;52.178;5.404;2023-08-06T04:36:02;9.07;;;5.43;;
16784;SDS011;8509;52.178;5.404;2023-08-06T04:38:27;10.13;;;5.45;;
16784;SDS011;8509;52.178;5.404;2023-08-06T04:40:53;9.98;;;5.57;;
16784;SDS011;8509;52.178;5.404;2023-08-06T04:43:19;9.35;;;5.90;;
16784;SDS011;8509;52.178;5.404;2023-08-06T04:45:48;9.65;;;5.90;;
16784;SDS011;8509;52.178;5.404;2023-08-06T04:48:15;11.32;;;6.22;;
16784;SDS011;8509;52.178;5.404;2023-08-06T04:50:44;11.02;;;6.32;;
16784;SDS011;8509;52.178;5.404;2023-08-06T04:53:11;10.18;;;6.47;;
16784;SDS011;8509;52.178;5.404;2023-08-06T04:55:36;10.35;;;6.20;;
16784;SDS011;8509;52.178;5.404;2023-08-06T04:58:02;10.20;;;6.22;;
16784;SDS011;8509;52.178;5.404;2023-08-06T05:00:28;9.63;;;6.15;;
16784;SDS011;8509;52.178;5.404;2023-08-06T05:02:54;18.88;;;8.20;;
16784;SDS011;8509;52.178;5.404;2023-08-06T05:05:20;9.85;;;6.22;;
16784;SDS011;8509;52.178;5.404;2023-08-06T05:07:48;11.55;;;6.03;;
16784;SDS011;8509;52.178;5.404;2023-08-06T05:10:14;15.13;;;6.18;;
16784;SDS011;8509;52.178;5.404;2023-08-06T05:12:40;13.02;;;6.45;;
16784;SDS011;8509;52.178;5.404;2023-08-06T05:15:06;11.60;;;7.10;;
16784;SDS011;8509;52.178;5.404;2023-08-06T05:17:32;13.45;;;7.30;;
16784;SDS011;8509;52.178;5.404;2023-08-06T05:19:58;13.15;;;7.30;;
16784;SDS011;8509;52.178;5.404;2023-08-06T05:22:24;13.45;;;7.57;;
16784;SDS011;8509;52.178;5.404;2023-08-06T05:24:50;13.57;;;8.13;;
16784;SDS011;8509;52.178;5.404;2023-08-06T05:27:16;9.68;;;5.75;;
16784;SDS011;8509;52.178;5.404;2023-08-06T05:29:43;13.73;;;7.45;;
16784;SDS011;8509;52.178;5.404;2023-08-06T05:32:11;11.38;;;7.18;;
16784;SDS011;8509;52.178;5.404;2023-08-06T05:34:36;13.50;;;7.13;;
16784;SDS011;8509;52.178;5.404;2023-08-06T05:37:02;12.95;;;7.18;;
16784;SDS011;8509;52.178;5.404;2023-08-06T05:39:29;12.25;;;6.50;;
16784;SDS011;8509;52.178;5.404;2023-08-06T05:41:54;12.15;;;6.50;;
16784;SDS011;8509;52.178;5.404;2023-08-06T05:44:20;9.13;;;5.32;;
16784;SDS011;8509;52.178;5.404;2023-08-06T05:46:46;11.10;;;6.35;;
16784;SDS011;8509;52.178;5.404;2023-08-06T05:49:12;13.52;;;6.80;;
16784;SDS011;8509;52.178;5.404;2023-08-06T05:51:38;13.18;;;7.15;;
16784;SDS011;8509;52.178;5.404;2023-08-06T05:54:04;11.82;;;5.97;;
16784;SDS011;8509;52.178;5.404;2023-08-06T05:56:30;10.63;;;6.72;;
16784;SDS011;8509;52.178;5.404;2023-08-06T05:58:56;10.05;;;5.88;;
16784;SDS011;8509;52.178;5.404;2023-08-06T06:01:22;14.40;;;6.22;;
16784;SDS011;8509;52.178;5.404;2023-08-06T06:03:48;10.10;;;5.35;;
16784;SDS011;8509;52.178;5.404;2023-08-06T06:06:13;10.48;;;5.95;;
16784;SDS011;8509;52.178;5.404;2023-08-06T06:08:39;9.05;;;6.40;;
16784;SDS011;8509;52.178;5.404;2023-08-06T06:11:05;15.30;;;6.30;;
16784;SDS011;8509;52.178;5.404;2023-08-06T06:13:30;10.43;;;5.93;;
16784;SDS011;8509;52.178;5.404;2023-08-06T06:15:56;10.93;;;6.57;;
16784;SDS011;8509;52.178;5.404;2023-08-06T06:18:22;9.30;;;6.13;;
16784;SDS011;8509;52.178;5.404;2023-08-06T06:20:48;10.32;;;6.50;;
16784;SDS011;8509;52.178;5.404;2023-08-06T06:23:13;10.23;;;6.50;;
16784;SDS011;8509;52.178;5.404;2023-08-06T06:25:43;10.50;;;6.40;;
16784;SDS011;8509;52.178;5.404;2023-08-06T06:28:13;12.77;;;6.28;;
16784;SDS011;8509;52.178;5.404;2023-08-06T06:30:40;9.40;;;5.63;;
16784;SDS011;8509;52.178;5.404;2023-08-06T06:33:07;8.85;;;5.07;;
16784;SDS011;8509;52.178;5.404;2023-08-06T06:35:33;10.07;;;6.00;;
16784;SDS011;8509;52.178;5.404;2023-08-06T06:37:58;8.68;;;5.95;;
16784;SDS011;8509;52.178;5.404;2023-08-06T06:40:25;10.77;;;6.18;;
16784;SDS011;8509;52.178;5.404;2023-08-06T06:42:51;10.02;;;5.45;;
16784;SDS011;8509;52.178;5.404;2023-08-06T06:45:16;18.80;;;6.00;;
16784;SDS011;8509;52.178;5.404;2023-08-06T06:47:42;10.25;;;5.90;;
16784;SDS011;8509;52.178;5.404;2023-08-06T06:50:08;8.85;;;5.55;;
16784;SDS011;8509;52.178;5.404;2023-08-06T06:52:34;8.63;;;5.20;;
16784;SDS011;8509;52.178;5.404;2023-08-06T06:54:59;9.98;;;5.75;;
16784;SDS011;8509;52.178;5.404;2023-08-06T06:57:25;9.05;;;5.63;;
16784;SDS011;8509;52.178;5.404;2023-08-06T06:59:51;10.02;;;6.38;;
16784;SDS011;8509;52.178;5.404;2023-08-06T07:02:16;13.48;;;5.70;;
16784;SDS011;8509;52.178;5.404;2023-08-06T07:04:42;9.60;;;6.25;;
16784;SDS011;8509;52.178;5.404;2023-08-06T07:07:07;9.25;;;5.68;;
16784;SDS011;8509;52.178;5.404;2023-08-06T07:09:33;9.65;;;6.18;;
16784;SDS011;8509;52.178;5.404;2023-08-06T07:11:59;7.32;;;5.63;;
16784;SDS011;8509;52.178;5.404;2023-08-06T07:14:25;11.68;;;4.97;;
16784;SDS011;8509;52.178;5.404;2023-08-06T07:16:51;9.30;;;6.03;;
16784;SDS011;8509;52.178;5.404;2023-08-06T07:19:16;8.70;;;5.60;;
16784;SDS011;8509;52.178;5.404;2023-08-06T07:21:43;7.88;;;5.00;;
16784;SDS011;8509;52.178;5.404;2023-08-06T07:24:08;6.55;;;4.80;;
16784;SDS011;8509;52.178;5.404;2023-08-06T07:26:34;7.20;;;4.90;;
16784;SDS011;8509;52.178;5.404;2023-08-06T07:29:00;9.52;;;6.28;;
16784;SDS011;8509;52.178;5.404;2023-08-06T07:31:26;8.50;;;5.40;;
16784;SDS011;8509;52.178;5.404;2023-08-06T07:33:52;6.15;;;4.10;;
16784;SDS011;8509;52.178;5.404;2023-08-06T07:36:17;5.95;;;4.75;;
16784;SDS011;8509;52.178;5.404;2023-08-06T07:38:43;6.43;;;4.88;;
16784;SDS011;8509;52.178;5.404;2023-08-06T07:41:09;6.82;;;4.93;;
16784;SDS011;8509;52.178;5.404;2023-08-06T07:43:34;7.47;;;4.93;;
16784;SDS011;8509;52.178;5.404;2023-08-06T07:46:03;6.57;;;4.38;;
16784;SDS011;8509;52.178;5.404;2023-08-06T07:48:28;7.05;;;4.47;;
16784;SDS011;8509;52.178;5.404;2023-08-06T07:50:54;6.03;;;4.35;;
16784;SDS011;8509;52.178;5.404;2023-08-06T07:53:21;7.05;;;4.78;;
16784;SDS011;8509;52.178;5.404;2023-08-06T07:55:50;7.05;;;4.63;;
16784;SDS011;8509;52.178;5.404;2023-08-06T07:58:17;6.00;;;3.95;;
16784;SDS011;8509;52.178;5.404;2023-08-06T08:00:43;7.53;;;4.13;;
16784;SDS011;8509;52.178;5.404;2023-08-06T08:03:11;8.20;;;4.00;;
16784;SDS011;8509;52.178;5.404;2023-08-06T08:05:38;6.35;;;4.03;;
16784;SDS011;8509;52.178;5.404;2023-08-06T08:08:04;5.03;;;3.22;;
16784;SDS011;8509;52.178;5.404;2023-08-06T08:10:30;4.95;;;3.08;;
16784;SDS011;8509;52.178;5.404;2023-08-06T08:12:57;6.00;;;4.57;;
16784;SDS011;8509;52.178;5.404;2023-08-06T08:15:23;6.63;;;4.57;;
16784;SDS011;8509;52.178;5.404;2023-08-06T08:17:51;10.32;;;3.67;;
16784;SDS011;8509;52.178;5.404;2023-08-06T08:20:17;5.03;;;3.28;;
16784;SDS011;8509;52.178;5.404;2023-08-06T08:22:43;6.97;;;4.35;;
16784;SDS011;8509;52.178;5.404;2023-08-06T08:25:09;8.38;;;5.07;;
16784;SDS011;8509;52.178;5.404;2023-08-06T08:27:34;5.80;;;4.15;;
16784;SDS011;8509;52.178;5.404;2023-08-06T08:30:00;6.45;;;4.22;;
16784;SDS011;8509;52.178;5.404;2023-08-06T08:32:26;4.80;;;3.33;;
16784;SDS011;8509;52.178;5.404;2023-08-06T08:34:52;3.47;;;2.10;;
16784;SDS011;8509;52.178;5.404;2023-08-06T08:37:17;1.58;;;1.48;;
16784;SDS011;8509;52.178;5.404;2023-08-06T08:39:43;1.17;;;1.08;;
16784;SDS011;8509;52.178;5.404;2023-08-06T08:42:09;0.95;;;0.93;;
16784;SDS011;8509;52.178;5.404;2023-08-06T08:44:35;0.73;;;0.73;;
16784;SDS011;8509;52.178;5.404;2023-08-06T08:47:05;1.17;;;0.88;;
16784;SDS011;8509;52.178;5.404;2023-08-06T08:49:31;1.48;;;1.23;;
16784;SDS011;8509;52.178;5.404;2023-08-06T08:51:57;2.28;;;1.33;;
16784;SDS011;8509;52.178;5.404;2023-08-06T08:54:24;3.30;;;1.27;;
16784;SDS011;8509;52.178;5.404;2023-08-06T08:56:51;1.77;;;1.63;;
16784;SDS011;8509;52.178;5.404;2023-08-06T08:59:17;1.95;;;0.80;;
16784;SDS011;8509;52.178;5.404;2023-08-06T09:01:43;1.15;;;1.05;;
16784;SDS011;8509;52.178;5.404;2023-08-06T09:04:15;0.70;;;0.70;;
16784;SDS011;8509;52.178;5.404;2023-08-06T09:06:41;1.00;;;0.90;;
16784;SDS011;8509;52.178;5.404;2023-08-06T09:09:12;1.20;;;1.10;;
16784;SDS011;8509;52.178;5.404;2023-08-06T09:11:45;1.50;;;1.00;;
16784;SDS011;8509;52.178;5.404;2023-08-06T09:14:14;4.47;;;1.45;;
16784;SDS011;8509;52.178;5.404;2023-08-06T09:16:40;1.48;;;1.17;;
16784;SDS011;8509;52.178;5.404;2023-08-06T09:19:09;2.00;;;1.17;;
16784;SDS011;8509;52.178;5.404;2023-08-06T09:21:39;1.48;;;0.90;;
16784;SDS011;8509;52.178;5.404;2023-08-06T09:24:14;1.30;;;1.05;;
16784;SDS011;8509;52.178;5.404;2023-08-06T09:26:41;2.78;;;1.58;;
16784;SDS011;8509;52.178;5.404;2023-08-06T09:29:09;1.88;;;1.42;;
16784;SDS011;8509;52.178;5.404;2023-08-06T09:31:50;2.60;;;2.10;;
16784;SDS011;8509;52.178;5.404;2023-08-06T09:34:21;2.78;;;1.98;;
16784;SDS011;8509;52.178;5.404;2023-08-06T09:36:48;1.73;;;1.63;;
16784;SDS011;8509;52.178;5.404;2023-08-06T09:39:19;1.65;;;1.17;;
16784;SDS011;8509;52.178;5.404;2023-08-06T09:41:58;3.17;;;1.63;;
16784;SDS011;8509;52.178;5.404;2023-08-06T09:44:27;3.75;;;2.15;;
16784;SDS011;8509;52.178;5.404;2023-08-06T09:46:57;1.88;;;1.42;;
16784;SDS011;8509;52.178;5.404;2023-08-06T09:51:59;4.57;;;2.15;;
16784;SDS011;8509;52.178;5.404;2023-08-06T09:54:26;2.45;;;1.80;;
16784;SDS011;8509;52.178;5.404;2023-08-06T09:56:53;2.42;;;1.95;;
16784;SDS011;8509;52.178;5.404;2023-08-06T09:59:19;4.80;;;3.15;;
16784;SDS011;8509;52.178;5.404;2023-08-06T10:01:46;4.75;;;2.50;;
16784;SDS011;8509;52.178;5.404;2023-08-06T10:04:13;4.47;;;2.97;;
16784;SDS011;8509;52.178;5.404;2023-08-06T10:06:41;3.55;;;1.90;;
16784;SDS011;8509;52.178;5.404;2023-08-06T10:09:08;4.00;;;3.10;;
16784;SDS011;8509;52.178;5.404;2023-08-06T10:11:34;3.20;;;2.35;;
16784;SDS011;8509;52.178;5.404;2023-08-06T10:14:10;3.92;;;2.50;;
16784;SDS011;8509;52.178;5.404;2023-08-06T10:16:39;3.78;;;2.28;;
16784;SDS011;8509;52.178;5.404;2023-08-06T10:19:07;2.85;;;2.20;;
16784;SDS011;8509;52.178;5.404;2023-08-06T10:21:35;4.70;;;2.42;;
16784;SDS011;8509;52.178;5.404;2023-08-06T10:24:02;3.10;;;2.08;;
16784;SDS011;8509;52.178;5.404;2023-08-06T10:26:34;4.10;;;2.13;;
16784;SDS011;8509;52.178;5.404;2023-08-06T10:29:00;7.68;;;2.47;;
16784;SDS011;8509;52.178;5.404;2023-08-06T10:34:22;3.40;;;2.00;;
16784;SDS011;8509;52.178;5.404;2023-08-06T10:36:48;7.40;;;2.10;;
16784;SDS011;8509;52.178;5.404;2023-08-06T10:39:14;4.40;;;2.80;;
16784;SDS011;8509;52.178;5.404;2023-08-06T10:41:40;3.33;;;2.35;;
16784;SDS011;8509;52.178;5.404;2023-08-06T10:44:08;1.75;;;1.50;;
16784;SDS011;8509;52.178;5.404;2023-08-06T10:46:35;2.75;;;1.70;;
16784;SDS011;8509;52.178;5.404;2023-08-06T10:49:01;4.85;;;1.50;;
16784;SDS011;8509;52.178;5.404;2023-08-06T10:51:29;1.80;;;1.40;;
16784;SDS011;8509;52.178;5.404;2023-08-06T10:53:55;3.28;;;1.88;;
16784;SDS011;8509;52.178;5.404;2023-08-06T10:56:23;2.50;;;1.67;;
16784;SDS011;8509;52.178;5.404;2023-08-06T10:58:55;3.83;;;2.03;;
16784;SDS011;8509;52.178;5.404;2023-08-06T11:01:22;3.95;;;1.92;;
16784;SDS011;8509;52.178;5.404;2023-08-06T11:03:49;3.45;;;1.95;;
16784;SDS011;8509;52.178;5.404;2023-08-06T11:06:19;5.35;;;1.85;;
16784;SDS011;8509;52.178;5.404;2023-08-06T11:08:52;3.45;;;1.75;;
16784;SDS011;8509;52.178;5.404;2023-08-06T11:11:19;2.25;;;1.15;;
16784;SDS011;8509;52.178;5.404;2023-08-06T11:13:49;1.60;;;1.02;;
16784;SDS011;8509;52.178;5.404;2023-08-06T11:16:20;2.90;;;1.30;;
16784;SDS011;8509;52.178;5.404;2023-08-06T11:18:51;3.80;;;1.20;;
16784;SDS011;8509;52.178;5.404;2023-08-06T11:21:21;3.00;;;1.70;;
16784;SDS011;8509;52.178;5.404;2023-08-06T11:23:47;2.20;;;0.95;;
16784;SDS011;8509;52.178;5.404;2023-08-06T11:26:18;2.50;;;1.55;;
16784;SDS011;8509;52.178;5.404;2023-08-06T11:28:44;6.27;;;1.53;;
16784;SDS011;8509;52.178;5.404;2023-08-06T11:31:18;1.65;;;1.10;;
16784;SDS011;8509;52.178;5.404;2023-08-06T11:33:44;3.22;;;1.17;;
16784;SDS011;8509;52.178;5.404;2023-08-06T11:36:10;1.67;;;0.98;;
16784;SDS011;8509;52.178;5.404;2023-08-06T11:38:37;1.50;;;0.77;;
16784;SDS011;8509;52.178;5.404;2023-08-06T11:41:02;1.48;;;1.02;;
16784;SDS011;8509;52.178;5.404;2023-08-06T11:43:30;2.22;;;1.30;;
16784;SDS011;8509;52.178;5.404;2023-08-06T11:45:56;4.43;;;1.00;;
16784;SDS011;8509;52.178;5.404;2023-08-06T11:48:21;1.50;;;1.13;;
16784;SDS011;8509;52.178;5.404;2023-08-06T11:50:47;2.40;;;1.85;;
16784;SDS011;8509;52.178;5.404;2023-08-06T11:53:13;1.73;;;1.23;;
16784;SDS011;8509;52.178;5.404;2023-08-06T11:55:40;1.08;;;0.82;;
16784;SDS011;8509;52.178;5.404;2023-08-06T11:58:06;1.98;;;1.30;;
16784;SDS011;8509;52.178;5.404;2023-08-06T12:00:31;1.63;;;1.10;;
16784;SDS011;8509;52.178;5.404;2023-08-06T12:02:57;2.60;;;1.08;;
16784;SDS011;8509;52.178;5.404;2023-08-06T12:05:28;4.47;;;1.50;;
16784;SDS011;8509;52.178;5.404;2023-08-06T12:07:56;4.07;;;2.13;;
16784;SDS011;8509;52.178;5.404;2023-08-06T12:10:27;2.03;;;1.52;;
16784;SDS011;8509;52.178;5.404;2023-08-06T12:12:54;1.95;;;1.00;;
16784;SDS011;8509;52.178;5.404;2023-08-06T12:15:20;1.30;;;0.80;;
16784;SDS011;8509;52.178;5.404;2023-08-06T12:17:46;2.50;;;1.00;;
16784;SDS011;8509;52.178;5.404;2023-08-06T12:20:12;4.55;;;1.15;;
16784;SDS011;8509;52.178;5.404;2023-08-06T12:22:37;3.80;;;0.98;;
16784;SDS011;8509;52.178;5.404;2023-08-06T12:25:05;6.70;;;1.00;;
16784;SDS011;8509;52.178;5.404;2023-08-06T12:27:43;3.03;;;1.38;;
16784;SDS011;8509;52.178;5.404;2023-08-06T12:30:09;2.95;;;0.82;;
16784;SDS011;8509;52.178;5.404;2023-08-06T12:32:36;2.72;;;0.63;;
16784;SDS011;8509;52.178;5.404;2023-08-06T12:35:02;0.80;;;0.80;;
16784;SDS011;8509;52.178;5.404;2023-08-06T12:37:28;1.35;;;0.77;;
16784;SDS011;8509;52.178;5.404;2023-08-06T12:39:54;1.13;;;0.80;;
16784;SDS011;8509;52.178;5.404;2023-08-06T12:42:19;0.75;;;0.75;;
16784;SDS011;8509;52.178;5.404;2023-08-06T12:44:45;1.92;;;1.23;;
16784;SDS011;8509;52.178;5.404;2023-08-06T12:47:13;3.08;;;1.38;;
16784;SDS011;8509;52.178;5.404;2023-08-06T12:49:38;2.45;;;1.25;;
16784;SDS011;8509;52.178;5.404;2023-08-06T12:52:04;2.00;;;0.80;;
16784;SDS011;8509;52.178;5.404;2023-08-06T12:54:33;1.30;;;1.20;;
16784;SDS011;8509;52.178;5.404;2023-08-06T12:57:01;3.78;;;0.93;;
16784;SDS011;8509;52.178;5.404;2023-08-06T12:59:28;1.52;;;1.33;;
16784;SDS011;8509;52.178;5.404;2023-08-06T13:01:53;2.40;;;1.48;;
16784;SDS011;8509;52.178;5.404;2023-08-06T13:04:19;1.05;;;0.95;;
16784;SDS011;8509;52.178;5.404;2023-08-06T13:06:45;2.10;;;1.05;;
16784;SDS011;8509;52.178;5.404;2023-08-06T13:09:11;1.98;;;1.10;;
16784;SDS011;8509;52.178;5.404;2023-08-06T13:11:38;1.90;;;1.75;;
16784;SDS011;8509;52.178;5.404;2023-08-06T13:14:05;1.10;;;0.80;;
16784;SDS011;8509;52.178;5.404;2023-08-06T13:16:36;4.35;;;1.02;;
16784;SDS011;8509;52.178;5.404;2023-08-06T13:19:04;1.77;;;1.13;;
16784;SDS011;8509;52.178;5.404;2023-08-06T13:21:34;2.25;;;1.60;;
16784;SDS011;8509;52.178;5.404;2023-08-06T13:24:05;3.72;;;1.63;;
16784;SDS011;8509;52.178;5.404;2023-08-06T13:26:31;6.10;;;1.45;;
16784;SDS011;8509;52.178;5.404;2023-08-06T13:28:58;2.08;;;1.50;;
16784;SDS011;8509;52.178;5.404;2023-08-06T13:31:25;4.65;;;1.35;;
16784;SDS011;8509;52.178;5.404;2023-08-06T13:33:51;2.17;;;1.65;;
16784;SDS011;8509;52.178;5.404;2023-08-06T13:36:19;1.88;;;1.10;;
16784;SDS011;8509;52.178;5.404;2023-08-06T13:38:44;1.60;;;1.10;;
16784;SDS011;8509;52.178;5.404;2023-08-06T13:41:10;1.75;;;1.65;;
16784;SDS011;8509;52.178;5.404;2023-08-06T13:43:36;3.08;;;1.48;;
16784;SDS011;8509;52.178;5.404;2023-08-06T13:46:02;1.67;;;1.02;;
16784;SDS011;8509;52.178;5.404;2023-08-06T13:48:27;1.52;;;1.25;;
16784;SDS011;8509;52.178;5.404;2023-08-06T13:50:53;1.10;;;1.00;;
16784;SDS011;8509;52.178;5.404;2023-08-06T13:53:18;2.72;;;1.00;;
16784;SDS011;8509;52.178;5.404;2023-08-06T13:55:44;2.30;;;1.10;;
16784;SDS011;8509;52.178;5.404;2023-08-06T13:58:10;6.22;;;0.90;;
16784;SDS011;8509;52.178;5.404;2023-08-06T14:00:36;2.05;;;1.10;;
16784;SDS011;8509;52.178;5.404;2023-08-06T14:03:01;2.50;;;1.30;;
16784;SDS011;8509;52.178;5.404;2023-08-06T14:05:28;0.82;;;0.80;;
16784;SDS011;8509;52.178;5.404;2023-08-06T14:07:54;1.05;;;0.95;;
16784;SDS011;8509;52.178;5.404;2023-08-06T14:10:20;0.75;;;0.75;;
16784;SDS011;8509;52.178;5.404;2023-08-06T14:12:45;0.63;;;0.63;;
16784;SDS011;8509;52.178;5.404;2023-08-06T14:15:11;2.33;;;1.20;;
16784;SDS011;8509;52.178;5.404;2023-08-06T14:17:37;1.13;;;0.88;;
16784;SDS011;8509;52.178;5.404;2023-08-06T14:20:03;1.88;;;1.00;;
16784;SDS011;8509;52.178;5.404;2023-08-06T14:22:32;2.78;;;1.38;;
16784;SDS011;8509;52.178;5.404;2023-08-06T14:24:58;1.10;;;1.00;;
16784;SDS011;8509;52.178;5.404;2023-08-06T14:27:24;0.90;;;0.80;;
16784;SDS011;8509;52.178;5.404;2023-08-06T14:29:50;2.25;;;0.70;;
16784;SDS011;8509;52.178;5.404;2023-08-06T14:32:16;0.55;;;0.50;;
16784;SDS011;8509;52.178;5.404;2023-08-06T14:34:43;0.77;;;0.77;;
16784;SDS011;8509;52.178;5.404;2023-08-06T14:37:09;0.57;;;0.57;;
16784;SDS011;8509;52.178;5.404;2023-08-06T14:39:35;0.93;;;0.65;;
16784;SDS011;8509;52.178;5.404;2023-08-06T14:42:01;2.42;;;0.93;;
16784;SDS011;8509;52.178;5.404;2023-08-06T14:44:28;2.05;;;0.93;;
16784;SDS011;8509;52.178;5.404;2023-08-06T14:46:53;1.75;;;0.85;;
16784;SDS011;8509;52.178;5.404;2023-08-06T14:49:19;1.35;;;1.00;;
16784;SDS011;8509;52.178;5.404;2023-08-06T14:51:45;1.35;;;1.00;;
16784;SDS011;8509;52.178;5.404;2023-08-06T14:54:11;0.60;;;0.60;;
16784;SDS011;8509;52.178;5.404;2023-08-06T14:56:36;0.90;;;0.80;;
16784;SDS011;8509;52.178;5.404;2023-08-06T14:59:02;1.45;;;0.80;;
16784;SDS011;8509;52.178;5.404;2023-08-06T15:01:28;0.82;;;0.82;;
16784;SDS011;8509;52.178;5.404;2023-08-06T15:03:53;1.10;;;0.70;;
16784;SDS011;8509;52.178;5.404;2023-08-06T15:06:19;0.70;;;0.60;;
16784;SDS011;8509;52.178;5.404;2023-08-06T15:08:45;1.42;;;0.57;;